Kalispell, MT

1:33 AM MDT on August 22, 2014 (GMT -0600)
Mullan Pass | Change Station
CLOSE
Current Station
Airport
Location: Mullan Pass,
Elevation: 6073 ft
Nearby Weather Stations

Elev 6073 ft 47.45 °N, 115.67 °W | Updated 40 minutes ago

Clear
Clear
48 °F
Feels Like 48 °F
N
6
Wind Variable Wind from East

Today
High -- | Low -- °F
--% Chance of Precip.
Yesterday
High -- | Low -- °F
Precip. -- in
6:41 AM 8:37 PM
Waning Crescent, 9% visible
Pressure 29.86 in
Visibility 10.0 miles
Clouds Clear
Dew Point 45 °F
Humidity 89%
Rainfall 0.13 in
Snow Depth Not available.
UV 0 out of 12
Pollen 3.70 out of 12
Air Quality Not available.
Flu Activity Not available.
METAR KMLP 220653Z AUTO 10005KT 10SM CLR 09/07 A3008 RMK AO2 SLP110 T00890072

More Conditions Fewer Conditions

Pressure 29.86 in
Visibility 10.0 miles
Clouds Clear
Dew Point 45 °F
Humidity 89%
Rainfall 0.13 in
Snow Depth Not available.
UV 0 out of 12
Pollen 3.70 out of 12
Air Quality Not available.
Flu Activity Not available.
METAR KMLP 220653Z AUTO 10005KT 10SM CLR 09/07 A3008 RMK AO2 SLP110 T00890072

More Conditions Fewer Conditions

10-Day Weather Forecast

Almanac

Astronomy

Aug. 22, 2014 Rise Set
Actual Time 6:41 AM MDT 8:37 PM MDT
Civil Twilight 6:07 AM MDT 9:11 PM MDT
Nautical Twilight 5:26 AM MDT 9:52 PM MDT
Astronomical Twilight 4:40 AM MDT 10:37 PM MDT
Moon 4:01 AM MDT 6:52 PM MDT
Length of Visible Light 15h 03m
Length of Day
13h 56m
Tomorrow will be 3m 17s shorter.
Waning Crescent, 9% of the Moon is Illuminated
Today
Waning Crescent
Aug 25
New
Sep 2
First Quarter
Sep 8
Full
Sep 15
Last Quarter

Today's Extremes

State Highs State Lows

Community

WunderPhotos

Upload Photos

1,746,131 photos uploaded!

Nearby

Snow Depth

Station Depth Elevation
Emery Creek 0 in 4350 ft
Hand Creek 0 in 5035 ft
Flattop Mountain 0 in 6300 ft
Many Glacier 0 in 4900 ft
Grave Creek 0 in 4300 ft

Earthquake Activity

City Distance Mag. Time & Date
No recent earthquake activity has been reported nearby.
Minimum magnitude displayed is 2.5.

Coastal Water Temperatures

Place Temperature
No Stations Reporting

Nearby Weather Stations